Time;durP1;ratioP1;P1;durP2;ratioP2;P2;SDS_P1;SDS_P2;PMS_P1;PMS_P2;Temp;Humidity;BMP_temperature;BMP_pressure;BME280_temperature;BME280_humidity;BME280_pressure;Samples;Min_cycle;Max_cycle;Signal;HPM_P1;HPM_P2
2022/11/19 00:00:07;;;;;;;5.50;5.10;;;6.50;99.90;;;;;;2069962;28;20018;-68
2022/11/19 00:01:13;;;;;;;5.07;4.63;;;6.50;99.90;;;;;;2071366;28;20030;-69
2022/11/19 00:02:16;;;;;;;5.20;4.72;;;6.50;99.90;;;;;;2070464;28;20518;-69
2022/11/19 00:03:19;;;;;;;5.72;5.20;;;6.50;99.90;;;;;;2068548;28;20026;-68
2022/11/19 00:04:19;;;;;;;5.60;5.10;;;6.40;99.90;;;;;;2071141;28;20018;-69
2022/11/19 00:05:20;;;;;;;5.20;4.80;;;6.40;99.90;;;;;;2070258;28;20033;-69
2022/11/19 00:06:22;;;;;;;7.05;6.43;;;6.40;99.90;;;;;;2070085;28;20021;-69
2022/11/19 00:07:23;;;;;;;6.25;5.03;;;6.50;99.90;;;;;;2069973;28;20029;-69
2022/11/19 00:08:23;;;;;;;5.93;5.43;;;6.40;99.90;;;;;;2069590;28;20045;-69
2022/11/19 00:09:24;;;;;;;5.60;5.10;;;6.40;99.90;;;;;;2072766;28;20009;-69
2022/11/19 00:10:25;;;;;;;6.10;5.60;;;6.40;99.90;;;;;;2071337;28;20053;-69
2022/11/19 00:12:55;;;;;;;5.88;5.38;;;6.40;99.90;;;;;;2070316;28;20109;-69
2022/11/19 00:13:56;;;;;;;5.93;5.43;;;6.40;99.90;;;;;;2070761;28;20022;-69
2022/11/19 00:14:56;;;;;;;6.80;6.15;;;6.40;99.90;;;;;;2072145;28;20034;-69
2022/11/19 00:16:02;;;;;;;6.55;5.95;;;6.40;99.90;;;;;;2069317;28;20054;-69
2022/11/19 00:17:03;;;;;;;5.95;5.45;;;6.40;99.90;;;;;;2069790;28;20092;-69
2022/11/19 00:18:04;;;;;;;7.72;6.28;;;6.30;99.90;;;;;;2070423;28;20544;-69
2022/11/19 00:19:05;;;;;;;6.80;6.20;;;6.30;99.90;;;;;;2071202;28;20060;-69
2022/11/19 00:20:06;;;;;;;7.10;6.50;;;6.30;99.90;;;;;;2071751;28;20033;-69
2022/11/19 00:21:10;;;;;;;6.88;6.25;;;6.30;99.90;;;;;;2071192;28;20223;-69
2022/11/19 00:22:10;;;;;;;7.55;6.40;;;6.30;99.90;;;;;;2070966;28;20145;-68
2022/11/19 00:23:11;;;;;;;6.90;6.30;;;6.30;99.90;;;;;;2067955;28;20245;-69
2022/11/19 00:24:12;;;;;;;6.70;6.10;;;6.30;99.90;;;;;;2071049;28;20430;-69
2022/11/19 00:25:13;;;;;;;7.70;7.03;;;6.30;99.90;;;;;;2071398;28;20030;-69
2022/11/19 00:26:14;;;;;;;7.03;6.43;;;6.30;99.90;;;;;;2070873;28;20033;-69
2022/11/19 00:27:14;;;;;;;7.13;6.53;;;6.20;99.90;;;;;;2070858;28;20580;-69
2022/11/19 00:28:15;;;;;;;7.10;6.50;;;6.30;99.90;;;;;;2068214;28;20022;-69
2022/11/19 00:29:15;;;;;;;7.05;6.45;;;6.20;99.90;;;;;;2069657;28;20097;-69
2022/11/19 00:30:16;;;;;;;7.43;6.60;;;6.30;99.90;;;;;;2071681;28;20037;-69
2022/11/19 00:31:17;;;;;;;7.68;6.97;;;6.20;99.90;;;;;;2070880;28;20036;-69
2022/11/19 00:32:18;;;;;;;7.47;6.78;;;6.20;99.90;;;;;;2069898;28;20101;-69
2022/11/19 00:33:18;;;;;;;7.50;6.80;;;6.20;99.90;;;;;;2070255;28;20022;-69
2022/11/19 00:34:19;;;;;;;7.68;6.97;;;6.20;99.90;;;;;;2071991;28;20054;-69
2022/11/19 00:35:19;;;;;;;7.65;6.93;;;6.20;99.90;;;;;;2072100;28;20482;-69
2022/11/19 00:36:21;;;;;;;7.50;6.80;;;6.20;99.90;;;;;;2066943;28;20051;-69
2022/11/19 00:37:22;;;;;;;7.68;6.97;;;6.20;99.90;;;;;;2071385;28;20041;-69
2022/11/19 00:38:23;;;;;;;8.63;7.93;;;6.10;99.90;;;;;;2068323;28;20022;-69
2022/11/19 00:39:24;;;;;;;8.10;7.30;;;6.10;99.90;;;;;;2071062;28;20018;-69
2022/11/19 00:40:24;;;;;;;8.55;7.78;;;6.10;99.90;;;;;;2070933;28;20017;-69
2022/11/19 00:41:25;;;;;;;8.27;7.55;;;6.10;99.90;;;;;;2070493;28;20029;-69
2022/11/19 00:42:25;;;;;;;8.43;7.65;;;6.10;99.90;;;;;;2069561;28;20734;-69
2022/11/19 00:44:45;;;;;;;8.23;7.53;;;6.10;99.90;;;;;;2069898;28;20478;-69
2022/11/19 00:45:47;;;;;;;7.60;7.00;;;6.00;99.90;;;;;;2069112;28;20442;-68
2022/11/19 00:46:48;;;;;;;7.95;7.22;;;6.00;99.90;;;;;;2070962;28;20033;-68
2022/11/19 00:47:48;;;;;;;8.43;7.63;;;6.00;99.90;;;;;;2069770;28;20026;-68
2022/11/19 00:48:52;;;;;;;9.45;7.82;;;6.00;99.90;;;;;;2071471;28;20833;-68
2022/11/19 00:49:52;;;;;;;8.90;8.10;;;6.00;99.90;;;;;;2071359;28;20029;-69
2022/11/19 00:50:53;;;;;;;8.07;7.40;;;5.90;99.90;;;;;;2068078;28;20465;-69
2022/11/19 00:51:54;;;;;;;9.15;8.35;;;5.90;99.90;;;;;;2070388;28;20045;-69
2022/11/19 00:52:54;;;;;;;9.38;8.48;;;6.00;99.90;;;;;;2070049;28;20022;-69
2022/11/19 00:53:55;;;;;;;9.15;8.25;;;6.00;99.90;;;;;;2069549;28;20036;-69
2022/11/19 00:54:56;;;;;;;9.15;8.35;;;6.00;99.90;;;;;;2071910;28;20083;-69
2022/11/19 00:56:08;;;;;;;8.35;7.55;;;6.00;99.90;;;;;;2068955;28;20076;-69
2022/11/19 00:57:08;;;;;;;8.63;7.82;;;5.90;99.90;;;;;;2070669;28;20037;-69
2022/11/19 00:58:09;;;;;;;9.13;8.13;;;5.90;99.90;;;;;;2070641;28;20053;-69
2022/11/19 00:59:09;;;;;;;8.77;7.97;;;5.90;99.90;;;;;;2069588;28;20057;-69
2022/11/19 01:00:10;;;;;;;9.35;8.45;;;5.90;99.90;;;;;;2070387;28;20558;-69
2022/11/19 01:01:13;;;;;;;8.77;7.97;;;5.90;99.90;;;;;;2069048;28;20030;-69
2022/11/19 01:02:13;;;;;;;8.93;8.02;;;5.90;99.90;;;;;;2070383;28;20022;-68
2022/11/19 01:03:14;;;;;;;9.23;8.43;;;5.90;99.90;;;;;;2069796;28;20034;-68
2022/11/19 01:04:14;;;;;;;10.00;8.65;;;5.90;99.90;;;;;;2070450;28;20037;-69
2022/11/19 01:05:15;;;;;;;9.30;8.50;;;5.90;99.90;;;;;;2069371;28;20165;-69
2022/11/19 01:06:18;;;;;;;9.25;8.45;;;5.90;99.90;;;;;;2071549;28;20485;-68
2022/11/19 01:07:18;;;;;;;10.18;9.27;;;5.90;99.90;;;;;;2071502;28;20088;-68
2022/11/19 01:08:19;;;;;;;10.38;9.48;;;6.00;99.90;;;;;;2067388;28;20014;-68
2022/11/19 01:09:20;;;;;;;10.02;9.13;;;5.90;99.90;;;;;;2070781;28;20029;-68
2022/11/19 01:10:20;;;;;;;10.52;9.60;;;5.90;99.90;;;;;;2071377;28;20149;-69
2022/11/19 01:11:24;;;;;;;10.35;9.35;;;6.00;99.90;;;;;;2070590;28;20033;-69
2022/11/19 01:12:25;;;;;;;10.57;9.68;;;6.00;99.90;;;;;;2069748;28;20018;-69
2022/11/19 01:13:34;;;;;;;9.82;8.93;;;5.90;99.90;;;;;;2068674;28;20088;-69
2022/11/19 01:14:35;;;;;;;10.93;9.93;;;5.90;99.90;;;;;;2069218;28;20022;-69
2022/11/19 01:15:35;;;;;;;10.77;9.77;;;5.90;99.90;;;;;;2069343;28;20108;-68
2022/11/19 01:16:39;;;;;;;12.27;10.13;;;5.90;99.90;;;;;;2069152;28;20030;-69
2022/11/19 01:17:39;;;;;;;11.85;10.50;;;6.00;99.90;;;;;;2070017;28;20037;-69
2022/11/19 01:18:41;;;;;;;12.13;10.93;;;5.90;99.90;;;;;;2070920;28;20033;-69
2022/11/19 01:19:41;;;;;;;12.07;10.88;;;5.90;99.90;;;;;;2070054;28;20038;-69
2022/11/19 01:20:42;;;;;;;12.48;11.27;;;5.90;99.90;;;;;;2068446;28;20852;-69
2022/11/19 01:21:43;;;;;;;12.90;11.60;;;5.90;99.90;;;;;;2069270;28;20037;-69
2022/11/19 01:22:45;;;;;;;12.00;10.90;;;5.80;99.90;;;;;;2068991;28;20654;-69
2022/11/19 01:23:46;;;;;;;11.73;10.63;;;5.80;99.90;;;;;;2069676;28;20083;-69
2022/11/19 01:24:46;;;;;;;12.90;11.65;;;5.90;99.90;;;;;;2070541;28;20048;-69
2022/11/19 01:25:47;;;;;;;12.75;11.45;;;5.90;99.90;;;;;;2069635;28;20034;-68
2022/11/19 01:26:47;;;;;;;13.23;11.95;;;5.90;99.90;;;;;;2069007;28;20022;-68
2022/11/19 01:27:48;;;;;;;14.15;12.77;;;5.80;99.90;;;;;;2068274;28;20110;-68
2022/11/19 01:28:49;;;;;;;13.38;12.18;;;5.80;99.90;;;;;;2069684;28;20041;-69
2022/11/19 01:29:50;;;;;;;12.52;11.40;;;5.80;99.90;;;;;;2070864;28;20121;-69
2022/11/19 01:30:51;;;;;;;14.05;12.55;;;5.80;99.90;;;;;;2069203;28;20038;-69
2022/11/19 01:31:52;;;;;;;15.52;14.02;;;5.80;99.90;;;;;;2070520;28;20021;-69
2022/11/19 01:32:52;;;;;;;13.30;12.10;;;5.80;99.90;;;;;;2071851;28;20033;-69
2022/11/19 01:33:54;;;;;;;13.40;12.00;;;5.80;99.90;;;;;;2071830;28;20080;-69
2022/11/19 01:34:54;;;;;;;13.95;12.65;;;5.80;99.90;;;;;;2078825;28;20104;-69
2022/11/19 01:35:56;;;;;;;14.95;13.50;;;5.80;99.90;;;;;;2076624;28;20072;-69
2022/11/19 01:36:56;;;;;;;13.98;12.57;;;5.80;99.90;;;;;;2071432;28;20140;-68
2022/11/19 01:37:59;;;;;;;14.40;13.05;;;5.80;99.90;;;;;;2069551;28;20033;-68
2022/11/19 01:39:00;;;;;;;14.43;13.13;;;5.80;99.90;;;;;;2069346;28;20023;-69
2022/11/19 01:40:00;;;;;;;14.77;13.35;;;5.80;99.90;;;;;;2069281;28;20030;-69
2022/11/19 01:41:02;;;;;;;15.27;13.77;;;5.80;99.90;;;;;;2069742;28;20057;-69
2022/11/19 01:42:03;;;;;;;15.60;14.00;;;5.70;99.90;;;;;;2070078;28;20036;-69
2022/11/19 01:43:03;;;;;;;15.20;13.70;;;5.70;99.90;;;;;;2070373;28;20029;-69
2022/11/19 01:44:06;;;;;;;15.32;13.63;;;5.70;99.90;;;;;;2069474;28;20026;-69
2022/11/19 01:45:07;;;;;;;16.70;15.00;;;5.70;99.90;;;;;;2069735;28;20037;-69
2022/11/19 01:46:09;;;;;;;15.98;14.48;;;5.70;99.90;;;;;;2069602;28;20022;-69
2022/11/19 01:47:10;;;;;;;16.13;14.43;;;5.70;99.90;;;;;;2066942;28;20022;-69
2022/11/19 01:48:20;;;;;;;15.07;13.68;;;5.70;99.90;;;;;;2069994;28;20053;-68
2022/11/19 01:49:20;;;;;;;16.70;15.02;;;5.70;99.90;;;;;;2069940;28;20406;-68
2022/11/19 01:50:22;;;;;;;17.88;16.08;;;5.60;99.90;;;;;;2069090;28;20034;-69
2022/11/19 01:51:41;;;;;;;15.98;14.48;;;5.60;99.90;;;;;;2069626;28;20022;-69
2022/11/19 01:52:42;;;;;;;17.17;15.48;;;5.60;99.90;;;;;;2069935;28;20100;-69
2022/11/19 01:53:44;;;;;;;17.95;16.25;;;5.50;99.90;;;;;;2068861;28;20482;-68
2022/11/19 01:54:48;;;;;;;17.67;15.88;;;5.50;99.90;;;;;;2071324;28;20037;-68
2022/11/19 01:55:49;;;;;;;18.70;16.98;;;5.50;99.90;;;;;;2068429;28;20023;-68
2022/11/19 01:56:51;;;;;;;17.48;15.77;;;5.50;99.90;;;;;;2068562;28;20096;-68
2022/11/19 01:57:59;;;;;;;18.65;16.85;;;5.50;99.90;;;;;;2067266;28;20489;-68
2022/11/19 01:59:05;;;;;;;18.33;16.52;;;5.50;99.90;;;;;;2070315;28;20050;-69
2022/11/19 02:00:07;;;;;;;18.05;15.93;;;5.50;99.90;;;;;;2077947;28;20030;-69
2022/11/19 02:01:09;;;;;;;17.90;16.10;;;5.40;99.90;;;;;;2077938;28;20612;-69
2022/11/19 02:02:10;;;;;;;19.20;17.30;;;5.40;99.90;;;;;;2070155;28;20073;-69
2022/11/19 02:03:11;;;;;;;18.30;16.48;;;5.40;99.90;;;;;;2068529;28;20652;-69
2022/11/19 02:04:15;;;;;;;19.10;17.30;;;5.50;99.90;;;;;;2070410;28;20648;-69
2022/11/19 02:05:16;;;;;;;19.52;17.52;;;5.40;99.90;;;;;;2070346;28;20030;-69
2022/11/19 02:06:18;;;;;;;19.58;17.65;;;5.40;99.90;;;;;;2070507;28;20069;-69
2022/11/19 02:07:25;;;;;;;19.95;17.95;;;5.40;99.90;;;;;;2070651;28;20393;-69
2022/11/19 02:08:39;;;;;;;20.33;18.33;;;5.40;99.90;;;;;;2070241;28;20083;-70
2022/11/19 02:09:41;;;;;;;20.13;18.23;;;5.40;99.90;;;;;;2069062;28;20033;-69
2022/11/19 02:11:01;;;;;;;20.75;18.55;;;5.40;99.90;;;;;;2068728;28;20028;-69
2022/11/19 02:12:24;;;;;;;19.75;17.65;;;5.30;99.90;;;;;;2069234;28;20113;-69
2022/11/19 02:13:47;;;;;;;21.05;18.85;;;5.30;99.90;;;;;;2066848;28;20045;-69
2022/11/19 02:15:02;;;;;;;21.23;18.88;;;5.20;99.90;;;;;;2069287;28;20121;-69
2022/11/19 02:16:17;;;;;;;21.38;19.30;;;5.20;99.90;;;;;;2069056;28;20030;-69
2022/11/19 02:17:54;;;;;;;21.30;19.15;;;5.20;99.90;;;;;;2069714;28;20107;-69
2022/11/19 02:19:35;;;;;;;22.23;19.98;;;5.20;99.90;;;;;;2070774;28;20029;-69
2022/11/19 02:20:54;;;;;;;23.00;20.67;;;5.20;99.90;;;;;;2068726;28;20038;-69
2022/11/19 02:22:31;;;;;;;21.88;19.75;;;5.10;99.90;;;;;;2067920;28;20072;-69
2022/11/19 02:23:45;;;;;;;21.77;19.67;;;5.10;99.90;;;;;;2068083;28;20038;-69
2022/11/19 02:25:17;;;;;;;20.35;18.35;;;5.10;99.90;;;;;;2069528;28;20065;-69
2022/11/19 02:26:39;;;;;;;22.23;19.88;;;5.10;99.90;;;;;;2069454;28;20103;-69
2022/11/19 02:27:57;;;;;;;22.42;20.23;;;5.10;99.90;;;;;;2069072;28;20031;-70
2022/11/19 02:29:19;;;;;;;22.15;19.95;;;5.10;99.90;;;;;;2069939;28;20029;-69
2022/11/19 02:30:19;;;;;;;23.88;21.38;;;5.10;99.90;;;;;;2069195;28;20029;-69
2022/11/19 02:31:25;;;;;;;22.20;20.10;;;5.00;99.90;;;;;;2067839;28;20202;-69
2022/11/19 02:32:42;;;;;;;22.80;20.60;;;5.00;99.90;;;;;;2067208;28;21796;-69
2022/11/19 02:34:08;;;;;;;22.60;20.25;;;5.10;99.90;;;;;;2066702;28;20076;-69
2022/11/19 02:35:15;;;;;;;23.77;21.15;;;5.10;99.90;;;;;;2070919;28;20017;-69
2022/11/19 02:36:28;;;;;;;24.38;21.90;;;5.00;99.90;;;;;;2068833;28;20029;-69
2022/11/19 02:37:48;;;;;;;22.48;20.27;;;5.00;99.90;;;;;;2069013;28;20030;-69
2022/11/19 02:39:00;;;;;;;22.95;20.65;;;5.00;99.90;;;;;;2068120;28;20034;-69
2022/11/19 02:40:04;;;;;;;24.17;21.65;;;5.00;99.90;;;;;;2071027;28;20049;-69
2022/11/19 02:41:33;;;;;;;23.23;20.92;;;5.00;99.90;;;;;;2072371;28;20037;-69
2022/11/19 02:43:16;;;;;;;23.33;21.02;;;5.00;99.90;;;;;;2071326;28;20017;-69
2022/11/19 02:46:13;;;;;;;23.95;21.63;;;4.90;99.90;;;;;;2072938;28;20397;-69
2022/11/19 02:47:39;;;;;;;24.05;21.65;;;4.80;99.90;;;;;;2072915;28;20037;-69
2022/11/19 02:48:43;;;;;;;24.15;21.80;;;4.80;99.90;;;;;;2067927;28;20088;-69
2022/11/19 02:49:45;;;;;;;23.63;20.98;;;4.80;99.90;;;;;;2069910;28;20500;-69
2022/11/19 02:50:52;;;;;;;23.80;21.40;;;4.80;99.90;;;;;;2069437;28;20037;-69
2022/11/19 02:51:53;;;;;;;23.48;21.17;;;4.90;99.90;;;;;;2069577;28;20497;-69
2022/11/19 02:52:55;;;;;;;25.05;22.65;;;4.90;99.90;;;;;;2072349;28;20026;-69
2022/11/19 02:53:56;;;;;;;25.15;22.67;;;4.90;99.90;;;;;;2070360;28;20140;-69
2022/11/19 02:54:57;;;;;;;25.00;22.50;;;4.90;99.90;;;;;;2071086;28;20038;-69
2022/11/19 02:56:10;;;;;;;26.20;23.52;;;4.90;99.90;;;;;;2070526;28;20026;-69
2022/11/19 02:57:12;;;;;;;31.40;22.13;;;4.90;99.90;;;;;;2072134;28;20494;-69
2022/11/19 03:05:17;;;;;;;25.15;22.75;;;4.80;99.90;;;;;;2069491;28;20026;-69
2022/11/19 03:06:22;;;;;;;25.80;23.20;;;4.80;99.90;;;;;;2071216;28;20109;-69
2022/11/19 03:07:23;;;;;;;26.10;23.50;;;4.80;99.90;;;;;;2070167;28;20046;-69
2022/11/19 03:08:24;;;;;;;26.58;23.95;;;4.80;99.90;;;;;;2070512;28;20038;-69
2022/11/19 03:09:25;;;;;;;27.00;24.20;;;4.70;99.90;;;;;;2071242;28;20034;-70
2022/11/19 03:10:35;;;;;;;26.70;23.98;;;4.80;99.90;;;;;;2070639;28;20474;-70
2022/11/19 03:11:35;;;;;;;28.15;24.05;;;4.70;99.90;;;;;;2070386;28;20037;-70
2022/11/19 03:16:40;;;;;;;27.65;24.95;;;4.70;99.90;;;;;;2069621;28;20132;-69
2022/11/19 03:17:10;;;;;;;28.60;25.60;;;4.70;99.90;;;;;;2072276;28;20896;-70
2022/11/19 03:18:41;;;;;;;27.20;23.88;;;4.70;99.90;;;;;;2071437;28;20669;-69
2022/11/19 03:19:48;;;;;;;28.65;25.48;;;4.70;99.90;;;;;;2069629;28;20479;-69
2022/11/19 03:21:02;;;;;;;27.27;24.58;;;4.60;99.90;;;;;;2071535;28;20030;-69
2022/11/19 03:22:20;;;;;;;27.73;25.02;;;4.70;99.90;;;;;;2069738;28;20029;-69
2022/11/19 03:23:29;;;;;;;28.15;25.35;;;4.70;99.90;;;;;;2071108;28;20712;-69
2022/11/19 03:24:36;;;;;;;28.10;25.15;;;4.60;99.90;;;;;;2070150;28;21295;-69
2022/11/19 03:25:52;;;;;;;28.70;25.70;;;4.60;99.90;;;;;;2069289;28;20030;-69
2022/11/19 03:27:07;;;;;;;28.90;25.45;;;4.60;99.90;;;;;;2070726;28;20021;-70
2022/11/19 03:28:14;;;;;;;28.08;25.23;;;4.70;99.90;;;;;;2070864;28;20089;-70
2022/11/19 03:29:15;;;;;;;27.17;24.48;;;4.60;99.90;;;;;;2071609;28;20109;-69
2022/11/19 03:30:18;;;;;;;29.67;26.77;;;4.70;99.90;;;;;;2069911;28;20071;-69
2022/11/19 03:31:22;;;;;;;29.50;26.42;;;4.70;99.90;;;;;;2069232;28;20026;-69
2022/11/19 03:32:29;;;;;;;29.58;26.50;;;4.70;99.90;;;;;;2069159;28;20022;-69
2022/11/19 03:33:40;;;;;;;28.63;25.58;;;4.70;99.90;;;;;;2071066;28;20038;-69
2022/11/19 03:34:43;;;;;;;28.80;25.90;;;4.70;99.90;;;;;;2071289;28;20038;-69
2022/11/19 03:35:51;;;;;;;30.70;27.60;;;4.70;99.90;;;;;;2071189;28;20036;-69
2022/11/19 03:36:57;;;;;;;28.92;26.02;;;4.70;99.90;;;;;;2070526;28;20041;-69
2022/11/19 03:38:03;;;;;;;28.52;25.67;;;4.70;99.90;;;;;;2069834;28;20125;-69
2022/11/19 03:39:09;;;;;;;31.58;28.40;;;4.70;99.90;;;;;;2071312;28;20057;-70
2022/11/19 03:40:11;;;;;;;29.30;26.40;;;4.70;99.90;;;;;;2071609;28;20065;-69
2022/11/19 03:41:16;;;;;;;29.23;26.35;;;4.70;99.90;;;;;;2071987;28;20033;-69
2022/11/19 03:42:19;;;;;;;30.30;27.02;;;4.70;99.90;;;;;;2070626;28;20026;-69
2022/11/19 03:43:24;;;;;;;30.88;27.80;;;4.70;99.90;;;;;;2069121;28;21171;-69
2022/11/19 03:44:33;;;;;;;29.77;26.83;;;4.70;99.90;;;;;;2069711;28;20034;-69
2022/11/19 03:45:39;;;;;;;30.92;27.63;;;4.70;99.90;;;;;;2069651;28;20104;-69
2022/11/19 03:46:43;;;;;;;30.35;27.15;;;4.60;99.90;;;;;;2071795;28;20121;-69
2022/11/19 03:47:46;;;;;;;31.85;28.30;;;4.60;99.90;;;;;;2069449;28;20026;-69
2022/11/19 03:48:50;;;;;;;31.13;27.92;;;4.60;99.90;;;;;;2071035;28;20026;-70
2022/11/19 03:49:56;;;;;;;30.20;27.20;;;4.60;99.90;;;;;;2070770;28;20501;-69
2022/11/19 03:51:10;;;;;;;29.88;26.77;;;4.60;99.90;;;;;;2071671;28;20022;-69
2022/11/19 03:52:19;;;;;;;30.65;27.52;;;4.60;99.90;;;;;;2072122;28;20542;-69
2022/11/19 03:53:20;;;;;;;31.13;28.00;;;4.60;99.90;;;;;;2069538;28;20041;-69
2022/11/19 03:54:21;;;;;;;30.92;27.70;;;4.50;99.90;;;;;;2069684;28;20545;-69
2022/11/19 03:55:28;;;;;;;31.23;27.98;;;4.50;99.90;;;;;;2070460;28;20453;-69
2022/11/19 03:56:31;;;;;;;29.95;26.90;;;4.50;99.90;;;;;;2071427;28;20497;-69
2022/11/19 03:57:33;;;;;;;30.63;27.45;;;4.50;99.90;;;;;;2071033;28;20029;-69
2022/11/19 03:58:41;;;;;;;30.50;27.50;;;4.50;99.90;;;;;;2070512;28;20022;-69
2022/11/19 03:59:42;;;;;;;31.40;28.08;;;4.50;99.90;;;;;;2070591;28;20101;-69
2022/11/19 04:00:42;;;;;;;34.70;29.27;;;4.50;99.90;;;;;;2069820;28;20556;-70
2022/11/19 04:01:45;;;;;;;31.83;28.45;;;4.40;99.90;;;;;;2071819;28;20018;-69
2022/11/19 04:02:45;;;;;;;30.98;27.67;;;4.50;99.90;;;;;;2070213;28;20144;-70
2022/11/19 04:04:34;;;;;;;31.02;27.98;;;4.50;99.90;;;;;;2070500;28;20042;-69
2022/11/19 04:05:08;;;;;;;;;;;4.50;99.90;;;;;;2070575;28;20034;-69
2022/11/19 04:06:09;;;;;;;29.98;26.98;;;4.40;99.90;;;;;;2071764;28;19936;-69
2022/11/19 04:07:12;;;;;;;34.22;27.55;;;4.40;99.90;;;;;;2071094;28;20026;-70
2022/11/19 04:08:13;;;;;;;31.60;28.30;;;4.40;99.90;;;;;;2070206;28;20386;-69
2022/11/19 04:09:14;;;;;;;30.90;27.55;;;4.40;99.90;;;;;;2071853;28;20068;-69
2022/11/19 04:10:14;;;;;;;32.53;28.92;;;4.40;99.90;;;;;;2070398;28;20029;-70
2022/11/19 04:11:15;;;;;;;31.08;27.88;;;4.40;99.90;;;;;;2071225;28;20114;-69
2022/11/19 04:12:21;;;;;;;31.85;27.88;;;4.40;99.90;;;;;;2070013;28;20026;-69
2022/11/19 04:13:22;;;;;;;31.38;28.02;;;4.40;99.90;;;;;;2070297;28;20033;-69
2022/11/19 04:14:22;;;;;;;31.50;28.30;;;4.40;99.90;;;;;;2067877;28;20061;-69
2022/11/19 04:15:23;;;;;;;31.50;28.13;;;4.40;99.90;;;;;;2069255;28;20092;-69
2022/11/19 04:16:23;;;;;;;32.38;28.90;;;4.40;99.90;;;;;;2070161;28;20066;-69
2022/11/19 04:17:24;;;;;;;32.25;28.95;;;4.40;99.90;;;;;;2071283;28;20037;-69
2022/11/19 04:18:24;;;;;;;30.58;27.27;;;4.40;99.90;;;;;;2070582;28;20036;-69
2022/11/19 04:19:25;;;;;;;30.95;27.85;;;4.40;99.90;;;;;;2071227;28;20045;-69
2022/11/19 04:20:25;;;;;;;31.33;28.02;;;4.40;99.90;;;;;;2070950;28;20026;-69
2022/11/19 04:21:26;;;;;;;32.50;29.20;;;4.40;99.90;;;;;;2070678;28;20040;-69
2022/11/19 04:22:26;;;;;;;33.13;29.67;;;4.40;99.90;;;;;;2070737;28;20698;-69
2022/11/19 04:23:27;;;;;;;30.85;27.65;;;4.40;99.90;;;;;;2069493;28;20489;-69
2022/11/19 04:24:27;;;;;;;32.00;28.60;;;4.40;99.90;;;;;;2070542;28;20097;-70
2022/11/19 04:25:28;;;;;;;31.75;28.23;;;4.40;99.90;;;;;;2070274;28;20022;-69
2022/11/19 04:26:28;;;;;;;30.63;27.42;;;4.40;99.90;;;;;;2070252;28;20022;-69
2022/11/19 04:27:29;;;;;;;31.38;28.08;;;4.40;99.90;;;;;;2071584;28;20044;-70
2022/11/19 04:28:29;;;;;;;31.17;27.98;;;4.40;99.90;;;;;;2070607;28;20029;-70
2022/11/19 04:29:30;;;;;;;33.70;28.60;;;4.40;99.90;;;;;;2070168;28;20501;-70
2022/11/19 04:30:30;;;;;;;32.47;29.13;;;4.40;99.90;;;;;;2073479;28;20029;-69
2022/11/19 04:31:32;;;;;;;31.55;28.25;;;4.40;99.90;;;;;;2076242;28;20108;-70
2022/11/19 04:32:32;;;;;;;30.98;27.67;;;4.40;99.90;;;;;;2071092;28;20489;-70
2022/11/19 04:33:33;;;;;;;32.92;29.52;;;4.40;99.90;;;;;;2069451;28;20033;-70
2022/11/19 04:34:33;;;;;;;33.10;29.58;;;4.40;99.90;;;;;;2070531;28;20593;-70
2022/11/19 04:35:34;;;;;;;31.83;28.67;;;4.40;99.90;;;;;;2070516;28;20759;-70
2022/11/19 04:36:34;;;;;;;29.73;26.63;;;4.40;99.90;;;;;;2069184;28;20030;-69
2022/11/19 04:37:35;;;;;;;29.92;26.83;;;4.40;99.90;;;;;;2070910;28;20026;-70
2022/11/19 04:38:35;;;;;;;32.15;28.20;;;4.40;99.90;;;;;;2070270;28;20390;-70
2022/11/19 04:39:36;;;;;;;33.35;29.92;;;4.40;99.90;;;;;;2069586;28;20159;-70
2022/11/19 04:40:38;;;;;;;30.67;27.58;;;4.40;99.90;;;;;;2071068;28;20030;-70
2022/11/19 04:41:39;;;;;;;29.92;26.83;;;4.40;99.90;;;;;;2070773;28;20746;-70
2022/11/19 04:42:40;;;;;;;30.63;27.35;;;4.40;99.90;;;;;;2069686;28;20402;-70
2022/11/19 04:43:40;;;;;;;29.88;26.77;;;4.40;99.90;;;;;;2071554;28;20156;-70
2022/11/19 04:44:41;;;;;;;31.35;28.10;;;4.30;99.90;;;;;;2069166;28;20029;-70
2022/11/19 04:45:41;;;;;;;30.67;27.48;;;4.40;99.90;;;;;;2071961;28;20022;-70
2022/11/19 04:46:42;;;;;;;31.33;28.13;;;4.30;99.90;;;;;;2070302;28;20034;-70
2022/11/19 04:47:42;;;;;;;30.50;27.35;;;4.30;99.90;;;;;;2069650;28;20057;-70
2022/11/19 04:48:43;;;;;;;31.05;27.70;;;4.40;99.90;;;;;;2070893;28;20033;-70
2022/11/19 04:49:43;;;;;;;29.30;26.20;;;4.30;99.90;;;;;;2069795;28;20077;-70
2022/11/19 04:50:44;;;;;;;30.50;27.40;;;4.30;99.90;;;;;;2069846;28;20057;-70
2022/11/19 04:51:44;;;;;;;31.13;27.95;;;4.30;99.90;;;;;;2070224;28;20999;-70
2022/11/19 04:52:45;;;;;;;31.48;28.08;;;4.40;99.90;;;;;;2068877;28;20493;-70
2022/11/19 04:53:45;;;;;;;30.92;27.63;;;4.30;99.90;;;;;;2070217;28;20038;-70
2022/11/19 04:54:46;;;;;;;30.63;27.48;;;4.40;99.90;;;;;;2070260;28;20101;-70
2022/11/19 04:55:46;;;;;;;30.92;27.77;;;4.30;99.90;;;;;;2069269;28;20474;-70
2022/11/19 04:56:47;;;;;;;29.95;26.92;;;4.30;99.90;;;;;;2070904;28;20449;-70
2022/11/19 04:57:50;;;;;;;32.58;29.27;;;4.30;99.90;;;;;;2071632;28;20103;-70
2022/11/19 04:58:51;;;;;;;30.02;26.92;;;4.30;99.90;;;;;;2067034;28;20036;-70
2022/11/19 04:59:51;;;;;;;32.13;28.83;;;4.30;99.90;;;;;;2067622;28;20029;-70
2022/11/19 05:00:52;;;;;;;31.33;28.08;;;4.30;99.90;;;;;;2068770;28;20039;-70
2022/11/19 05:01:52;;;;;;;31.92;28.63;;;4.30;99.90;;;;;;2068480;28;20080;-70
2022/11/19 05:02:53;;;;;;;31.05;27.73;;;4.30;99.90;;;;;;2067152;28;20021;-70
2022/11/19 05:03:53;;;;;;;32.75;29.25;;;4.30;99.90;;;;;;2069430;28;20091;-70
2022/11/19 05:04:54;;;;;;;32.38;29.02;;;4.30;99.90;;;;;;2068055;28;20125;-70
2022/11/19 05:05:54;;;;;;;32.40;29.05;;;4.20;99.90;;;;;;2067916;28;20026;-70
2022/11/19 05:06:55;;;;;;;34.10;30.42;;;4.20;99.90;;;;;;2071587;28;20112;-70
2022/11/19 05:07:55;;;;;;;33.75;29.95;;;4.20;99.90;;;;;;2070246;28;20068;-70
2022/11/19 05:08:56;;;;;;;32.65;29.20;;;4.20;99.90;;;;;;2069844;28;20041;-70
2022/11/19 05:09:56;;;;;;;34.58;30.77;;;4.20;99.90;;;;;;2070841;28;20125;-70
2022/11/19 05:10:57;;;;;;;31.98;28.67;;;4.20;99.90;;;;;;2070243;28;20033;-70
2022/11/19 05:11:57;;;;;;;33.33;29.85;;;4.20;99.90;;;;;;2068166;28;20033;-70
2022/11/19 05:12:58;;;;;;;33.72;30.17;;;4.20;99.90;;;;;;2068928;28;20022;-70
2022/11/19 05:13:58;;;;;;;33.50;30.00;;;4.20;99.90;;;;;;2070773;28;20022;-70
2022/11/19 05:14:59;;;;;;;33.13;29.55;;;4.20;99.90;;;;;;2071294;28;20065;-70
2022/11/19 05:15:59;;;;;;;33.60;30.02;;;4.20;99.90;;;;;;2070504;28;20045;-70
2022/11/19 05:17:00;;;;;;;34.42;30.73;;;4.20;99.90;;;;;;2068488;28;20026;-70
2022/11/19 05:18:01;;;;;;;32.97;29.52;;;4.20;99.90;;;;;;2067357;28;20478;-70
2022/11/19 05:19:01;;;;;;;34.00;30.23;;;4.20;99.90;;;;;;2069431;28;20043;-70
2022/11/19 05:20:02;;;;;;;33.60;29.80;;;4.20;99.90;;;;;;2068666;28;20053;-70
2022/11/19 05:21:03;;;;;;;32.03;28.60;;;4.20;99.90;;;;;;2071778;28;20441;-70
2022/11/19 05:22:03;;;;;;;34.13;30.52;;;4.10;99.90;;;;;;2070527;28;20622;-70
2022/11/19 05:23:04;;;;;;;33.15;29.55;;;4.10;99.90;;;;;;2069982;28;20042;-70
2022/11/19 05:24:05;;;;;;;32.92;29.40;;;4.20;99.90;;;;;;2076461;28;20026;-70
2022/11/19 05:25:06;;;;;;;34.90;29.85;;;4.20;99.90;;;;;;2077416;28;20108;-70
2022/11/19 05:26:06;;;;;;;34.53;30.77;;;4.20;99.90;;;;;;2069947;28;20076;-70
2022/11/19 05:27:07;;;;;;;32.47;29.05;;;4.10;99.90;;;;;;2070014;28;20029;-70
2022/11/19 05:28:08;;;;;;;33.70;30.08;;;4.10;99.90;;;;;;2071411;28;20041;-70
2022/11/19 05:29:09;;;;;;;34.47;30.40;;;4.10;99.90;;;;;;2069905;28;20080;-70
2022/11/19 05:30:10;;;;;;;35.63;31.40;;;4.10;99.90;;;;;;2070634;28;20056;-70
2022/11/19 05:31:10;;;;;;;35.63;30.95;;;4.10;99.90;;;;;;2070828;28;20033;-70
2022/11/19 05:32:11;;;;;;;35.05;30.95;;;4.10;99.90;;;;;;2068426;28;20098;-70
2022/11/19 05:33:11;;;;;;;36.00;31.55;;;4.10;99.90;;;;;;2070563;28;20033;-70
2022/11/19 05:34:12;;;;;;;34.15;30.38;;;4.10;99.90;;;;;;2066064;28;20022;-70
2022/11/19 05:35:13;;;;;;;34.22;30.63;;;4.10;99.90;;;;;;2068212;28;20038;-70
2022/11/19 05:36:13;;;;;;;36.55;32.55;;;4.00;99.90;;;;;;2069486;28;20033;-70
2022/11/19 05:37:14;;;;;;;35.47;31.40;;;4.00;99.90;;;;;;2069876;28;20026;-70
2022/11/19 05:38:14;;;;;;;34.97;31.10;;;4.00;99.90;;;;;;2068930;28;20032;-70
2022/11/19 05:39:15;;;;;;;39.85;33.67;;;4.00;99.90;;;;;;2069349;28;20038;-70
2022/11/19 05:40:16;;;;;;;37.08;32.00;;;4.00;99.90;;;;;;2067699;28;20065;-70
2022/11/19 05:41:17;;;;;;;36.10;31.55;;;4.00;99.90;;;;;;2071073;28;20192;-70
2022/11/19 05:42:17;;;;;;;36.35;31.88;;;4.00;99.90;;;;;;2070059;28;20026;-70
2022/11/19 05:43:18;;;;;;;37.00;33.00;;;4.00;99.90;;;;;;2070246;28;20062;-70
2022/11/19 05:44:18;;;;;;;34.72;31.00;;;4.00;99.90;;;;;;2070394;28;20630;-70